Tarrant, Alabama
Current Conditions -  °F | °C
As of 4:53 AM on Saturday 01 Nov 2014 (Local Time) from KBHM Reporting Station
Clear Clear  
Wind Chill: 27°   Ceiling: Unl
Heat Index: 36°   Visibility: 10mi
Dew Point: 25°   Wind: 14mph
Humidity: 64%   Direction: 310°NW
Pressure: 30.16"   Gusts: NA
Location:  33.605°N, 86.7592°W
Report Text: KBHM 010953Z 31012KT 10SM CLR 02/M04 A3016 RMK AO2 SLP214 T00221039
Loading
Personal Weather Stations






























Interactive Weather Map New forecast layout! Learn more

10-Day Weather Forecast

Advertisements
Track Severe Weather on mobile